sensor_id;sensor_type;location;lat;lon;timestamp;pressure;altitude;pressure_sealevel;temperature;humidity
34065;BME280;20339;49.754;20.158;2022-10-19T00:01:41;97348.94;;;13.50;83.91
34065;BME280;20339;49.754;20.158;2022-10-19T00:04:13;97348.64;;;13.49;83.88
34065;BME280;20339;49.754;20.158;2022-10-19T00:06:44;97345.56;;;13.47;84.06
34065;BME280;20339;49.754;20.158;2022-10-19T00:09:17;97344.45;;;13.46;83.95
34065;BME280;20339;49.754;20.158;2022-10-19T00:11:53;97354.09;;;13.40;83.89
34065;BME280;20339;49.754;20.158;2022-10-19T00:14:27;97356.57;;;13.35;83.91
34065;BME280;20339;49.754;20.158;2022-10-19T00:16:58;97354.59;;;13.34;84.19
34065;BME280;20339;49.754;20.158;2022-10-19T00:19:32;97353.66;;;13.32;83.92
34065;BME280;20339;49.754;20.158;2022-10-19T00:22:03;97355.34;;;13.29;83.93
34065;BME280;20339;49.754;20.158;2022-10-19T00:24:34;97356.40;;;13.29;83.87
34065;BME280;20339;49.754;20.158;2022-10-19T00:27:05;97352.98;;;13.31;84.05
34065;BME280;20339;49.754;20.158;2022-10-19T00:29:36;97354.04;;;13.26;84.02
34065;BME280;20339;49.754;20.158;2022-10-19T00:32:07;97351.34;;;13.23;84.29
34065;BME280;20339;49.754;20.158;2022-10-19T00:34:38;97354.10;;;13.23;84.40
34065;BME280;20339;49.754;20.158;2022-10-19T00:37:10;97354.29;;;13.15;84.25
34065;BME280;20339;49.754;20.158;2022-10-19T00:39:41;97356.23;;;13.11;84.45
34065;BME280;20339;49.754;20.158;2022-10-19T00:42:13;97351.45;;;13.05;84.58
34065;BME280;20339;49.754;20.158;2022-10-19T00:45:08;97353.21;;;13.05;84.81
34065;BME280;20339;49.754;20.158;2022-10-19T00:47:41;97352.37;;;12.96;84.79
34065;BME280;20339;49.754;20.158;2022-10-19T00:50:14;97349.13;;;12.83;85.10
34065;BME280;20339;49.754;20.158;2022-10-19T00:52:46;97352.13;;;12.71;85.74
34065;BME280;20339;49.754;20.158;2022-10-19T00:55:17;97347.38;;;12.61;86.15
34065;BME280;20339;49.754;20.158;2022-10-19T00:57:49;97347.84;;;12.52;86.49
34065;BME280;20339;49.754;20.158;2022-10-19T01:00:20;97344.56;;;12.46;86.96
34065;BME280;20339;49.754;20.158;2022-10-19T01:02:51;97343.08;;;12.45;87.21
34065;BME280;20339;49.754;20.158;2022-10-19T01:05:23;97337.50;;;12.44;87.46
34065;BME280;20339;49.754;20.158;2022-10-19T01:07:55;97338.48;;;12.42;87.73
34065;BME280;20339;49.754;20.158;2022-10-19T01:10:31;97331.52;;;12.39;87.93
34065;BME280;20339;49.754;20.158;2022-10-19T01:13:16;97328.80;;;12.40;88.16
34065;BME280;20339;49.754;20.158;2022-10-19T01:15:57;97326.08;;;12.42;88.39
34065;BME280;20339;49.754;20.158;2022-10-19T01:18:39;97325.20;;;12.47;88.52
34065;BME280;20339;49.754;20.158;2022-10-19T01:21:22;97319.44;;;12.50;88.70
34065;BME280;20339;49.754;20.158;2022-10-19T01:30:06;97322.27;;;12.39;89.27
34065;BME280;20339;49.754;20.158;2022-10-19T01:32:58;97327.21;;;12.35;89.52
34065;BME280;20339;49.754;20.158;2022-10-19T01:35:37;97331.51;;;12.42;89.75
34065;BME280;20339;49.754;20.158;2022-10-19T01:38:19;97324.20;;;12.44;89.73
34065;BME280;20339;49.754;20.158;2022-10-19T01:40:57;97317.09;;;12.42;89.82
34065;BME280;20339;49.754;20.158;2022-10-19T01:43:39;97322.36;;;12.41;89.78
34065;BME280;20339;49.754;20.158;2022-10-19T01:46:15;97321.45;;;12.24;90.08
34065;BME280;20339;49.754;20.158;2022-10-19T01:48:55;97316.16;;;12.20;90.34
34065;BME280;20339;49.754;20.158;2022-10-19T01:51:31;97317.73;;;12.10;90.76
34065;BME280;20339;49.754;20.158;2022-10-19T01:54:08;97322.59;;;11.99;90.88
34065;BME280;20339;49.754;20.158;2022-10-19T01:56:43;97320.70;;;11.98;90.81
34065;BME280;20339;49.754;20.158;2022-10-19T01:59:18;97325.46;;;11.98;91.00
34065;BME280;20339;49.754;20.158;2022-10-19T02:01:51;97325.16;;;11.88;91.35
34065;BME280;20339;49.754;20.158;2022-10-19T02:04:24;97320.49;;;11.81;91.62
34065;BME280;20339;49.754;20.158;2022-10-19T02:06:55;97320.23;;;11.81;91.74
34065;BME280;20339;49.754;20.158;2022-10-19T02:09:27;97319.15;;;11.75;92.31
34065;BME280;20339;49.754;20.158;2022-10-19T02:12:01;97315.13;;;11.69;93.02
34065;BME280;20339;49.754;20.158;2022-10-19T02:14:40;97319.10;;;11.61;93.47
34065;BME280;20339;49.754;20.158;2022-10-19T02:17:15;97322.09;;;11.58;93.61
34065;BME280;20339;49.754;20.158;2022-10-19T02:19:47;97319.70;;;11.57;94.06
34065;BME280;20339;49.754;20.158;2022-10-19T02:22:21;97316.36;;;11.57;93.85
34065;BME280;20339;49.754;20.158;2022-10-19T02:24:52;97309.45;;;11.62;93.84
34065;BME280;20339;49.754;20.158;2022-10-19T02:27:25;97309.98;;;11.60;94.07
34065;BME280;20339;49.754;20.158;2022-10-19T02:29:57;97307.76;;;11.56;94.28
34065;BME280;20339;49.754;20.158;2022-10-19T02:32:29;97306.99;;;11.52;94.56
34065;BME280;20339;49.754;20.158;2022-10-19T02:35:00;97307.06;;;11.47;94.78
34065;BME280;20339;49.754;20.158;2022-10-19T02:37:32;97307.65;;;11.42;95.17
34065;BME280;20339;49.754;20.158;2022-10-19T02:40:04;97303.87;;;11.38;95.35
34065;BME280;20339;49.754;20.158;2022-10-19T02:42:38;97302.44;;;11.36;95.52
34065;BME280;20339;49.754;20.158;2022-10-19T02:45:13;97296.17;;;11.36;95.64
34065;BME280;20339;49.754;20.158;2022-10-19T02:47:49;97295.91;;;11.36;95.68
34065;BME280;20339;49.754;20.158;2022-10-19T02:50:22;97294.64;;;11.35;95.80
34065;BME280;20339;49.754;20.158;2022-10-19T02:52:53;97286.24;;;11.37;95.69
34065;BME280;20339;49.754;20.158;2022-10-19T02:55:24;97287.59;;;11.41;95.60
34065;BME280;20339;49.754;20.158;2022-10-19T02:57:56;97288.59;;;11.43;95.65
34065;BME280;20339;49.754;20.158;2022-10-19T03:00:27;97295.59;;;11.46;95.61
34065;BME280;20339;49.754;20.158;2022-10-19T03:02:58;97294.99;;;11.50;95.57
34065;BME280;20339;49.754;20.158;2022-10-19T03:05:31;97295.42;;;11.58;95.61
34065;BME280;20339;49.754;20.158;2022-10-19T03:08:03;97282.71;;;11.66;95.31
34065;BME280;20339;49.754;20.158;2022-10-19T03:10:34;97282.87;;;11.72;95.18
34065;BME280;20339;49.754;20.158;2022-10-19T03:13:09;97278.51;;;11.78;94.98
34065;BME280;20339;49.754;20.158;2022-10-19T03:15:40;97280.60;;;11.84;94.83
34065;BME280;20339;49.754;20.158;2022-10-19T03:18:13;97272.62;;;11.83;94.48
34065;BME280;20339;49.754;20.158;2022-10-19T03:20:45;97278.20;;;11.79;94.51
34065;BME280;20339;49.754;20.158;2022-10-19T03:23:16;97282.92;;;11.79;94.49
34065;BME280;20339;49.754;20.158;2022-10-19T03:25:47;97279.94;;;11.80;94.57
34065;BME280;20339;49.754;20.158;2022-10-19T03:28:18;97278.77;;;11.80;94.55
34065;BME280;20339;49.754;20.158;2022-10-19T03:30:49;97278.94;;;11.80;94.60
34065;BME280;20339;49.754;20.158;2022-10-19T03:33:23;97276.55;;;11.81;94.61
34065;BME280;20339;49.754;20.158;2022-10-19T03:36:14;97275.52;;;11.76;94.50
34065;BME280;20339;49.754;20.158;2022-10-19T03:38:46;97277.35;;;11.73;94.54
34065;BME280;20339;49.754;20.158;2022-10-19T03:41:17;97277.46;;;11.71;94.71
34065;BME280;20339;49.754;20.158;2022-10-19T03:43:48;97277.92;;;11.73;94.77
34065;BME280;20339;49.754;20.158;2022-10-19T03:46:22;97279.04;;;11.74;94.93
34065;BME280;20339;49.754;20.158;2022-10-19T03:48:53;97274.89;;;11.78;94.99
34065;BME280;20339;49.754;20.158;2022-10-19T03:51:26;97276.80;;;11.80;94.87
34065;BME280;20339;49.754;20.158;2022-10-19T03:53:59;97270.33;;;11.78;94.76
34065;BME280;20339;49.754;20.158;2022-10-19T03:56:34;97272.61;;;11.75;94.86
34065;BME280;20339;49.754;20.158;2022-10-19T03:59:06;97267.45;;;11.76;95.06
34065;BME280;20339;49.754;20.158;2022-10-19T04:01:39;97267.14;;;11.74;95.29
34065;BME280;20339;49.754;20.158;2022-10-19T04:04:13;97267.26;;;11.69;95.41
34065;BME280;20339;49.754;20.158;2022-10-19T04:06:46;97266.55;;;11.68;95.57
34065;BME280;20339;49.754;20.158;2022-10-19T04:09:19;97270.59;;;11.68;95.95
34065;BME280;20339;49.754;20.158;2022-10-19T04:11:51;97262.48;;;11.66;96.35
34065;BME280;20339;49.754;20.158;2022-10-19T04:14:22;97258.02;;;11.62;96.48
34065;BME280;20339;49.754;20.158;2022-10-19T04:16:56;97259.61;;;11.63;96.56
34065;BME280;20339;49.754;20.158;2022-10-19T04:19:27;97260.03;;;11.64;96.39
34065;BME280;20339;49.754;20.158;2022-10-19T04:21:59;97254.94;;;11.66;96.30
34065;BME280;20339;49.754;20.158;2022-10-19T04:24:30;97248.20;;;11.62;96.48
34065;BME280;20339;49.754;20.158;2022-10-19T04:27:02;97241.04;;;11.59;96.33
34065;BME280;20339;49.754;20.158;2022-10-19T04:29:34;97244.45;;;11.58;96.18
34065;BME280;20339;49.754;20.158;2022-10-19T04:32:06;97245.81;;;11.61;96.18
34065;BME280;20339;49.754;20.158;2022-10-19T04:34:38;97240.66;;;11.61;96.13
34065;BME280;20339;49.754;20.158;2022-10-19T04:37:10;97244.02;;;11.59;96.01
34065;BME280;20339;49.754;20.158;2022-10-19T04:39:41;97243.54;;;11.60;95.99
34065;BME280;20339;49.754;20.158;2022-10-19T04:42:13;97243.74;;;11.57;96.51
34065;BME280;20339;49.754;20.158;2022-10-19T04:44:44;97240.19;;;11.52;96.54
34065;BME280;20339;49.754;20.158;2022-10-19T04:47:16;97244.44;;;11.50;96.79
34065;BME280;20339;49.754;20.158;2022-10-19T04:49:47;97239.15;;;11.48;96.90
34065;BME280;20339;49.754;20.158;2022-10-19T04:52:18;97241.27;;;11.45;97.03
34065;BME280;20339;49.754;20.158;2022-10-19T04:54:49;97243.30;;;11.46;96.81
34065;BME280;20339;49.754;20.158;2022-10-19T04:57:21;97243.39;;;11.49;96.70
34065;BME280;20339;49.754;20.158;2022-10-19T04:59:52;97245.55;;;11.50;96.62
34065;BME280;20339;49.754;20.158;2022-10-19T05:02:23;97242.91;;;11.49;97.04
34065;BME280;20339;49.754;20.158;2022-10-19T05:04:54;97248.39;;;11.44;97.11
34065;BME280;20339;49.754;20.158;2022-10-19T05:07:26;97248.87;;;11.44;97.19
34065;BME280;20339;49.754;20.158;2022-10-19T05:09:57;97246.38;;;11.45;97.23
34065;BME280;20339;49.754;20.158;2022-10-19T05:12:30;97247.34;;;11.42;97.16
34065;BME280;20339;49.754;20.158;2022-10-19T05:15:01;97245.53;;;11.43;97.19
34065;BME280;20339;49.754;20.158;2022-10-19T05:17:32;97246.80;;;11.40;97.06
34065;BME280;20339;49.754;20.158;2022-10-19T05:20:05;97252.15;;;11.39;96.96
34065;BME280;20339;49.754;20.158;2022-10-19T05:22:37;97249.13;;;11.38;96.85
34065;BME280;20339;49.754;20.158;2022-10-19T05:25:10;97247.75;;;11.36;96.81
34065;BME280;20339;49.754;20.158;2022-10-19T05:27:41;97256.63;;;11.33;96.98
34065;BME280;20339;49.754;20.158;2022-10-19T05:30:12;97257.80;;;11.30;97.04
34065;BME280;20339;49.754;20.158;2022-10-19T05:32:43;97259.08;;;11.30;97.00
34065;BME280;20339;49.754;20.158;2022-10-19T05:35:15;97260.67;;;11.28;97.04
34065;BME280;20339;49.754;20.158;2022-10-19T05:37:50;97255.30;;;11.26;97.11
34065;BME280;20339;49.754;20.158;2022-10-19T05:40:23;97254.66;;;11.25;97.18
34065;BME280;20339;49.754;20.158;2022-10-19T05:42:54;97247.97;;;11.23;97.08
34065;BME280;20339;49.754;20.158;2022-10-19T05:45:25;97248.13;;;11.23;97.02
34065;BME280;20339;49.754;20.158;2022-10-19T05:47:56;97250.25;;;11.24;96.97
34065;BME280;20339;49.754;20.158;2022-10-19T05:50:28;97249.61;;;11.25;97.08
34065;BME280;20339;49.754;20.158;2022-10-19T05:53:00;97252.23;;;11.26;96.94
34065;BME280;20339;49.754;20.158;2022-10-19T05:55:35;97241.14;;;11.27;96.77
34065;BME280;20339;49.754;20.158;2022-10-19T05:58:06;97244.90;;;11.26;96.60
34065;BME280;20339;49.754;20.158;2022-10-19T06:00:39;97250.77;;;11.25;96.44
34065;BME280;20339;49.754;20.158;2022-10-19T06:03:11;97248.77;;;11.26;96.45
34065;BME280;20339;49.754;20.158;2022-10-19T06:05:45;97253.19;;;11.27;96.26
34065;BME280;20339;49.754;20.158;2022-10-19T06:08:17;97250.15;;;11.32;96.17
34065;BME280;20339;49.754;20.158;2022-10-19T06:10:51;97253.48;;;11.37;95.92
34065;BME280;20339;49.754;20.158;2022-10-19T06:13:22;97255.45;;;11.42;95.95
34065;BME280;20339;49.754;20.158;2022-10-19T06:15:54;97250.58;;;11.43;95.52
34065;BME280;20339;49.754;20.158;2022-10-19T06:18:25;97257.95;;;11.42;95.19
34065;BME280;20339;49.754;20.158;2022-10-19T06:20:59;97257.05;;;11.42;95.06
34065;BME280;20339;49.754;20.158;2022-10-19T06:23:34;97255.52;;;11.42;95.01
34065;BME280;20339;49.754;20.158;2022-10-19T06:26:06;97255.83;;;11.43;94.90
34065;BME280;20339;49.754;20.158;2022-10-19T06:28:39;97268.00;;;11.42;94.89
34065;BME280;20339;49.754;20.158;2022-10-19T06:31:12;97270.86;;;11.43;94.74
34065;BME280;20339;49.754;20.158;2022-10-19T06:33:46;97265.38;;;11.45;94.61
34065;BME280;20339;49.754;20.158;2022-10-19T06:36:19;97271.33;;;11.44;94.36
34065;BME280;20339;49.754;20.158;2022-10-19T06:38:52;97276.91;;;11.39;93.76
34065;BME280;20339;49.754;20.158;2022-10-19T06:41:24;97278.77;;;11.35;93.33
34065;BME280;20339;49.754;20.158;2022-10-19T06:43:56;97278.93;;;11.26;92.89
34065;BME280;20339;49.754;20.158;2022-10-19T06:46:27;97286.89;;;11.18;92.44
34065;BME280;20339;49.754;20.158;2022-10-19T06:49:00;97286.14;;;11.07;92.10
34065;BME280;20339;49.754;20.158;2022-10-19T06:51:32;97295.69;;;11.01;91.98
34065;BME280;20339;49.754;20.158;2022-10-19T06:54:03;97294.95;;;10.99;92.02
34065;BME280;20339;49.754;20.158;2022-10-19T06:56:34;97305.53;;;10.94;92.04
34065;BME280;20339;49.754;20.158;2022-10-19T06:59:06;97309.41;;;10.96;91.81
34065;BME280;20339;49.754;20.158;2022-10-19T07:01:37;97311.33;;;10.98;91.42
34065;BME280;20339;49.754;20.158;2022-10-19T07:04:08;97319.30;;;11.05;91.22
34065;BME280;20339;49.754;20.158;2022-10-19T07:06:39;97322.13;;;11.11;90.48
34065;BME280;20339;49.754;20.158;2022-10-19T07:09:10;97322.17;;;11.08;89.96
34065;BME280;20339;49.754;20.158;2022-10-19T07:11:41;97328.96;;;11.03;89.87
34065;BME280;20339;49.754;20.158;2022-10-19T07:14:12;97329.45;;;11.13;89.94
34065;BME280;20339;49.754;20.158;2022-10-19T07:16:43;97331.52;;;11.20;89.31
34065;BME280;20339;49.754;20.158;2022-10-19T07:19:15;97338.86;;;11.31;88.65
34065;BME280;20339;49.754;20.158;2022-10-19T07:21:46;97343.22;;;11.45;88.01
34065;BME280;20339;49.754;20.158;2022-10-19T07:24:21;97346.04;;;11.60;86.61
34065;BME280;20339;49.754;20.158;2022-10-19T07:26:52;97343.55;;;12.05;85.23
34065;BME280;20339;49.754;20.158;2022-10-19T07:29:24;97340.67;;;12.83;81.66
34065;BME280;20339;49.754;20.158;2022-10-19T07:31:55;97338.52;;;12.87;78.71
34065;BME280;20339;49.754;20.158;2022-10-19T07:34:26;97343.49;;;12.62;78.44
34065;BME280;20339;49.754;20.158;2022-10-19T07:37:00;97341.16;;;13.23;79.80
34065;BME280;20339;49.754;20.158;2022-10-19T07:39:31;97337.47;;;14.51;75.16
34065;BME280;20339;49.754;20.158;2022-10-19T07:42:02;97340.77;;;14.87;71.47
34065;BME280;20339;49.754;20.158;2022-10-19T07:44:33;97336.35;;;15.05;68.34
34065;BME280;20339;49.754;20.158;2022-10-19T07:47:05;97332.17;;;14.79;64.62
34065;BME280;20339;49.754;20.158;2022-10-19T07:49:36;97340.43;;;15.37;64.75
34065;BME280;20339;49.754;20.158;2022-10-19T07:52:10;97342.16;;;15.64;62.67
34065;BME280;20339;49.754;20.158;2022-10-19T07:54:41;97336.68;;;14.80;60.83
34065;BME280;20339;49.754;20.158;2022-10-19T07:57:13;97345.30;;;13.95;62.51
34065;BME280;20339;49.754;20.158;2022-10-19T07:59:44;97343.54;;;13.53;64.31
34065;BME280;20339;49.754;20.158;2022-10-19T08:02:16;97337.00;;;13.45;65.32
34065;BME280;20339;49.754;20.158;2022-10-19T08:04:48;97331.14;;;13.86;67.98
34065;BME280;20339;49.754;20.158;2022-10-19T08:07:20;97329.15;;;15.39;68.71
34065;BME280;20339;49.754;20.158;2022-10-19T08:09:51;97325.70;;;16.04;64.39
34065;BME280;20339;49.754;20.158;2022-10-19T08:12:22;97321.95;;;15.22;64.51
34065;BME280;20339;49.754;20.158;2022-10-19T08:14:59;97320.95;;;14.68;64.71
34065;BME280;20339;49.754;20.158;2022-10-19T08:17:37;97317.66;;;14.63;65.37
34065;BME280;20339;49.754;20.158;2022-10-19T08:20:11;97317.37;;;14.59;65.06
34065;BME280;20339;49.754;20.158;2022-10-19T08:22:42;97316.75;;;14.19;64.87
34065;BME280;20339;49.754;20.158;2022-10-19T08:25:14;97311.54;;;13.51;65.43
34065;BME280;20339;49.754;20.158;2022-10-19T08:27:45;97309.48;;;12.93;66.20
34065;BME280;20339;49.754;20.158;2022-10-19T08:30:16;97299.36;;;12.57;67.46
34065;BME280;20339;49.754;20.158;2022-10-19T08:32:47;97306.56;;;12.39;67.90
34065;BME280;20339;49.754;20.158;2022-10-19T08:35:18;97304.78;;;12.19;68.43
34065;BME280;20339;49.754;20.158;2022-10-19T08:37:52;97301.68;;;12.05;68.83
34065;BME280;20339;49.754;20.158;2022-10-19T08:40:25;97295.81;;;11.98;69.69
34065;BME280;20339;49.754;20.158;2022-10-19T08:43:00;97297.77;;;11.99;70.08
34065;BME280;20339;49.754;20.158;2022-10-19T08:45:39;97297.41;;;11.98;70.29
34065;BME280;20339;49.754;20.158;2022-10-19T08:48:29;97299.88;;;11.83;70.58
34065;BME280;20339;49.754;20.158;2022-10-19T08:51:05;97312.30;;;11.68;71.21
34065;BME280;20339;49.754;20.158;2022-10-19T08:53:44;97314.98;;;11.57;71.97
34065;BME280;20339;49.754;20.158;2022-10-19T08:56:26;97322.51;;;11.50;72.44
34065;BME280;20339;49.754;20.158;2022-10-19T08:59:08;97320.13;;;11.46;73.28
34065;BME280;20339;49.754;20.158;2022-10-19T09:01:47;97320.86;;;11.51;73.69
34065;BME280;20339;49.754;20.158;2022-10-19T09:04:23;97322.45;;;11.61;73.86
34065;BME280;20339;49.754;20.158;2022-10-19T09:07:25;97327.13;;;11.61;73.70
34065;BME280;20339;49.754;20.158;2022-10-19T09:10:00;97329.15;;;11.62;73.66
34065;BME280;20339;49.754;20.158;2022-10-19T09:12:42;97328.45;;;11.62;74.14
34065;BME280;20339;49.754;20.158;2022-10-19T09:15:23;97327.50;;;11.57;72.81
34065;BME280;20339;49.754;20.158;2022-10-19T09:17:57;97331.02;;;11.46;72.24
34065;BME280;20339;49.754;20.158;2022-10-19T09:20:32;97338.17;;;11.37;72.72
34065;BME280;20339;49.754;20.158;2022-10-19T09:23:16;97341.05;;;11.31;72.97
34065;BME280;20339;49.754;20.158;2022-10-19T09:25:50;97334.77;;;11.42;72.87
34065;BME280;20339;49.754;20.158;2022-10-19T09:28:37;97324.31;;;11.48;71.52
34065;BME280;20339;49.754;20.158;2022-10-19T09:31:19;97328.41;;;11.55;71.84
34065;BME280;20339;49.754;20.158;2022-10-19T09:33:50;97325.55;;;11.58;71.84
34065;BME280;20339;49.754;20.158;2022-10-19T09:36:34;97324.16;;;11.55;70.84
34065;BME280;20339;49.754;20.158;2022-10-19T09:39:06;97322.67;;;11.48;70.09
34065;BME280;20339;49.754;20.158;2022-10-19T09:41:44;97320.86;;;11.36;69.69
34065;BME280;20339;49.754;20.158;2022-10-19T09:44:17;97331.27;;;11.22;70.14
34065;BME280;20339;49.754;20.158;2022-10-19T09:46:54;97332.05;;;11.16;70.24
34065;BME280;20339;49.754;20.158;2022-10-19T09:49:40;97324.16;;;11.15;70.40
34065;BME280;20339;49.754;20.158;2022-10-19T09:52:31;97319.16;;;11.17;70.57
34065;BME280;20339;49.754;20.158;2022-10-19T09:55:09;97319.52;;;11.23;71.19
34065;BME280;20339;49.754;20.158;2022-10-19T09:57:48;97318.06;;;11.27;70.65
34065;BME280;20339;49.754;20.158;2022-10-19T10:00:22;97306.70;;;11.18;69.94
34065;BME280;20339;49.754;20.158;2022-10-19T10:02:54;97313.20;;;11.08;70.05
34065;BME280;20339;49.754;20.158;2022-10-19T10:05:32;97307.27;;;11.03;71.00
34065;BME280;20339;49.754;20.158;2022-10-19T10:08:10;97308.89;;;10.98;71.10
34065;BME280;20339;49.754;20.158;2022-10-19T10:10:46;97309.63;;;10.93;71.63
34065;BME280;20339;49.754;20.158;2022-10-19T10:13:25;97309.84;;;10.89;72.15
34065;BME280;20339;49.754;20.158;2022-10-19T10:16:00;97313.29;;;10.87;72.24
34065;BME280;20339;49.754;20.158;2022-10-19T10:18:37;97315.06;;;10.78;72.04
34065;BME280;20339;49.754;20.158;2022-10-19T10:21:21;97330.20;;;10.68;72.10
34065;BME280;20339;49.754;20.158;2022-10-19T10:24:05;97334.00;;;10.61;72.63
34065;BME280;20339;49.754;20.158;2022-10-19T10:26:42;97334.48;;;10.59;73.02
34065;BME280;20339;49.754;20.158;2022-10-19T10:29:21;97331.02;;;10.57;73.45
34065;BME280;20339;49.754;20.158;2022-10-19T10:31:54;97322.44;;;10.57;73.75
34065;BME280;20339;49.754;20.158;2022-10-19T10:34:38;97319.80;;;10.54;73.74
34065;BME280;20339;49.754;20.158;2022-10-19T10:37:18;97324.85;;;10.69;74.15
34065;BME280;20339;49.754;20.158;2022-10-19T10:39:53;97313.79;;;10.84;73.22
34065;BME280;20339;49.754;20.158;2022-10-19T10:42:29;97316.48;;;10.98;72.28
34065;BME280;20339;49.754;20.158;2022-10-19T10:45:08;97308.11;;;11.02;71.25
34065;BME280;20339;49.754;20.158;2022-10-19T10:47:45;97307.09;;;11.01;70.56
34065;BME280;20339;49.754;20.158;2022-10-19T10:50:21;97306.84;;;11.02;70.53
34065;BME280;20339;49.754;20.158;2022-10-19T10:53:00;97305.83;;;11.07;70.92
34065;BME280;20339;49.754;20.158;2022-10-19T10:55:33;97298.05;;;11.42;70.10
34065;BME280;20339;49.754;20.158;2022-10-19T10:58:10;97283.91;;;11.35;68.19
34065;BME280;20339;49.754;20.158;2022-10-19T11:00:45;97294.58;;;11.16;66.98
34065;BME280;20339;49.754;20.158;2022-10-19T11:03:22;97295.47;;;10.99;67.99
34065;BME280;20339;49.754;20.158;2022-10-19T11:05:57;97304.90;;;10.87;68.73
34065;BME280;20339;49.754;20.158;2022-10-19T11:08:32;97310.49;;;10.81;69.73
34065;BME280;20339;49.754;20.158;2022-10-19T11:11:10;97309.85;;;10.78;70.31
34065;BME280;20339;49.754;20.158;2022-10-19T11:13:47;97324.02;;;10.73;71.06
34065;BME280;20339;49.754;20.158;2022-10-19T11:16:23;97315.09;;;10.70;70.81
34065;BME280;20339;49.754;20.158;2022-10-19T11:18:59;97312.67;;;10.60;70.81
34065;BME280;20339;49.754;20.158;2022-10-19T11:21:35;97312.05;;;10.48;69.63
34065;BME280;20339;49.754;20.158;2022-10-19T11:24:12;97322.73;;;10.37;68.37
34065;BME280;20339;49.754;20.158;2022-10-19T11:27:01;97308.23;;;10.32;68.08
34065;BME280;20339;49.754;20.158;2022-10-19T11:29:47;97315.77;;;10.23;67.81
34065;BME280;20339;49.754;20.158;2022-10-19T11:32:28;97315.77;;;10.19;68.06
34065;BME280;20339;49.754;20.158;2022-10-19T11:35:19;97315.39;;;10.16;68.14
34065;BME280;20339;49.754;20.158;2022-10-19T11:38:03;97307.39;;;10.14;67.77
34065;BME280;20339;49.754;20.158;2022-10-19T11:40:41;97312.48;;;10.19;68.12
34065;BME280;20339;49.754;20.158;2022-10-19T11:43:20;97313.84;;;10.23;68.55
34065;BME280;20339;49.754;20.158;2022-10-19T11:46:04;97308.92;;;10.32;68.78
34065;BME280;20339;49.754;20.158;2022-10-19T11:48:48;97303.34;;;10.43;68.27
34065;BME280;20339;49.754;20.158;2022-10-19T11:51:24;97299.61;;;10.54;67.33
34065;BME280;20339;49.754;20.158;2022-10-19T11:54:22;97307.13;;;10.65;67.11
34065;BME280;20339;49.754;20.158;2022-10-19T11:56:59;97307.10;;;10.81;66.93
34065;BME280;20339;49.754;20.158;2022-10-19T11:59:41;97302.20;;;10.87;66.22
34065;BME280;20339;49.754;20.158;2022-10-19T12:02:36;97305.65;;;10.89;65.92
34065;BME280;20339;49.754;20.158;2022-10-19T12:05:16;97301.50;;;10.90;65.44
34065;BME280;20339;49.754;20.158;2022-10-19T12:08:00;97298.95;;;10.87;65.34
34065;BME280;20339;49.754;20.158;2022-10-19T12:10:42;97301.48;;;10.80;65.56
34065;BME280;20339;49.754;20.158;2022-10-19T12:13:20;97295.93;;;10.87;66.05
34065;BME280;20339;49.754;20.158;2022-10-19T12:15:56;97301.12;;;10.84;65.89
34065;BME280;20339;49.754;20.158;2022-10-19T12:18:33;97291.61;;;10.73;65.94
34065;BME280;20339;49.754;20.158;2022-10-19T12:21:10;97292.27;;;10.62;66.36
34065;BME280;20339;49.754;20.158;2022-10-19T12:23:44;97288.75;;;10.54;66.71
34065;BME280;20339;49.754;20.158;2022-10-19T12:26:19;97292.11;;;10.47;67.12
34065;BME280;20339;49.754;20.158;2022-10-19T12:28:56;97288.45;;;10.46;67.27
34065;BME280;20339;49.754;20.158;2022-10-19T12:31:30;97285.49;;;10.46;67.74
34065;BME280;20339;49.754;20.158;2022-10-19T12:34:04;97283.97;;;10.53;67.95
34065;BME280;20339;49.754;20.158;2022-10-19T12:36:45;97285.21;;;10.87;68.54
34065;BME280;20339;49.754;20.158;2022-10-19T12:39:24;97289.17;;;11.13;66.93
34065;BME280;20339;49.754;20.158;2022-10-19T12:42:05;97283.42;;;11.09;66.13
34065;BME280;20339;49.754;20.158;2022-10-19T12:45:00;97285.13;;;11.01;65.55
34065;BME280;20339;49.754;20.158;2022-10-19T12:47:38;97285.80;;;10.88;64.84
34065;BME280;20339;49.754;20.158;2022-10-19T12:50:09;97286.05;;;10.79;64.75
34065;BME280;20339;49.754;20.158;2022-10-19T12:52:43;97287.03;;;10.68;64.36
34065;BME280;20339;49.754;20.158;2022-10-19T12:55:29;97291.73;;;10.61;64.34
34065;BME280;20339;49.754;20.158;2022-10-19T12:58:13;97288.77;;;10.62;64.82
34065;BME280;20339;49.754;20.158;2022-10-19T13:01:00;97285.70;;;10.62;65.05
34065;BME280;20339;49.754;20.158;2022-10-19T13:03:34;97273.65;;;10.59;64.52
34065;BME280;20339;49.754;20.158;2022-10-19T13:06:11;97276.21;;;10.51;64.30
34065;BME280;20339;49.754;20.158;2022-10-19T13:08:46;97276.90;;;10.48;64.36
34065;BME280;20339;49.754;20.158;2022-10-19T13:11:18;97282.89;;;10.49;64.54
34065;BME280;20339;49.754;20.158;2022-10-19T13:14:01;97285.02;;;10.47;64.55
34065;BME280;20339;49.754;20.158;2022-10-19T13:17:01;97294.66;;;10.46;65.04
34065;BME280;20339;49.754;20.158;2022-10-19T13:19:33;97295.30;;;10.46;65.42
34065;BME280;20339;49.754;20.158;2022-10-19T13:22:27;97290.52;;;10.45;65.14
34065;BME280;20339;49.754;20.158;2022-10-19T13:25:26;97298.48;;;10.48;65.63
34065;BME280;20339;49.754;20.158;2022-10-19T13:28:01;97304.69;;;10.52;65.44
34065;BME280;20339;49.754;20.158;2022-10-19T13:31:23;97308.27;;;10.55;65.19
34065;BME280;20339;49.754;20.158;2022-10-19T13:33:57;97302.04;;;10.54;65.12
34065;BME280;20339;49.754;20.158;2022-10-19T13:36:29;97303.41;;;10.48;64.74
34065;BME280;20339;49.754;20.158;2022-10-19T13:39:20;97294.77;;;10.44;64.55